sensor_id;sensor_type;location;lat;lon;timestamp;P1;durP1;ratioP1;P2;durP2;ratioP2
3083;SDS011;1552;51.952;7.618;2022-12-07T00:00:31;17.40;;;11.73;;
3083;SDS011;1552;51.952;7.618;2022-12-07T00:02:57;18.17;;;11.00;;
3083;SDS011;1552;51.952;7.618;2022-12-07T00:05:25;15.07;;;11.40;;
3083;SDS011;1552;51.952;7.618;2022-12-07T00:07:51;14.37;;;10.93;;
3083;SDS011;1552;51.952;7.618;2022-12-07T00:10:17;15.53;;;11.27;;
3083;SDS011;1552;51.952;7.618;2022-12-07T00:12:44;13.50;;;11.17;;
3083;SDS011;1552;51.952;7.618;2022-12-07T00:15:10;14.97;;;10.30;;
3083;SDS011;1552;51.952;7.618;2022-12-07T00:17:36;14.57;;;11.47;;
3083;SDS011;1552;51.952;7.618;2022-12-07T00:20:03;13.83;;;10.13;;
3083;SDS011;1552;51.952;7.618;2022-12-07T00:22:31;15.50;;;11.50;;
3083;SDS011;1552;51.952;7.618;2022-12-07T00:24:57;16.97;;;10.80;;
3083;SDS011;1552;51.952;7.618;2022-12-07T00:27:24;13.47;;;10.10;;
3083;SDS011;1552;51.952;7.618;2022-12-07T00:29:50;14.63;;;9.80;;
3083;SDS011;1552;51.952;7.618;2022-12-07T00:32:16;12.30;;;9.03;;
3083;SDS011;1552;51.952;7.618;2022-12-07T00:34:43;16.17;;;11.27;;
3083;SDS011;1552;51.952;7.618;2022-12-07T00:37:10;13.00;;;9.57;;
3083;SDS011;1552;51.952;7.618;2022-12-07T00:39:39;12.97;;;9.30;;
3083;SDS011;1552;51.952;7.618;2022-12-07T00:42:05;15.67;;;10.27;;
3083;SDS011;1552;51.952;7.618;2022-12-07T00:44:31;13.27;;;9.63;;
3083;SDS011;1552;51.952;7.618;2022-12-07T00:46:57;15.63;;;10.17;;
3083;SDS011;1552;51.952;7.618;2022-12-07T00:49:24;14.10;;;9.90;;
3083;SDS011;1552;51.952;7.618;2022-12-07T00:51:50;14.57;;;10.43;;
3083;SDS011;1552;51.952;7.618;2022-12-07T00:54:18;15.00;;;10.83;;
3083;SDS011;1552;51.952;7.618;2022-12-07T00:56:46;13.27;;;8.87;;
3083;SDS011;1552;51.952;7.618;2022-12-07T00:59:12;14.17;;;9.67;;
3083;SDS011;1552;51.952;7.618;2022-12-07T01:01:39;12.70;;;9.57;;
3083;SDS011;1552;51.952;7.618;2022-12-07T01:04:06;13.43;;;9.80;;
3083;SDS011;1552;51.952;7.618;2022-12-07T01:06:32;16.23;;;10.53;;
3083;SDS011;1552;51.952;7.618;2022-12-07T01:08:58;15.07;;;9.87;;
3083;SDS011;1552;51.952;7.618;2022-12-07T01:11:26;15.60;;;10.57;;
3083;SDS011;1552;51.952;7.618;2022-12-07T01:13:55;11.97;;;9.30;;
3083;SDS011;1552;51.952;7.618;2022-12-07T01:16:22;14.23;;;9.30;;
3083;SDS011;1552;51.952;7.618;2022-12-07T01:18:51;16.57;;;10.17;;
3083;SDS011;1552;51.952;7.618;2022-12-07T01:21:20;12.47;;;9.03;;
3083;SDS011;1552;51.952;7.618;2022-12-07T01:23:46;13.80;;;9.50;;
3083;SDS011;1552;51.952;7.618;2022-12-07T01:26:13;12.53;;;9.00;;
3083;SDS011;1552;51.952;7.618;2022-12-07T01:28:40;16.87;;;10.87;;
3083;SDS011;1552;51.952;7.618;2022-12-07T01:31:08;20.17;;;9.70;;
3083;SDS011;1552;51.952;7.618;2022-12-07T01:33:35;14.47;;;10.30;;
3083;SDS011;1552;51.952;7.618;2022-12-07T01:36:02;14.10;;;9.23;;
3083;SDS011;1552;51.952;7.618;2022-12-07T01:38:29;15.43;;;9.83;;
3083;SDS011;1552;51.952;7.618;2022-12-07T01:40:56;15.87;;;10.07;;
3083;SDS011;1552;51.952;7.618;2022-12-07T01:43:22;15.07;;;9.67;;
3083;SDS011;1552;51.952;7.618;2022-12-07T01:45:49;14.77;;;9.30;;
3083;SDS011;1552;51.952;7.618;2022-12-07T01:48:24;16.83;;;11.07;;
3083;SDS011;1552;51.952;7.618;2022-12-07T01:50:51;16.90;;;10.13;;
3083;SDS011;1552;51.952;7.618;2022-12-07T01:53:19;18.73;;;10.97;;
3083;SDS011;1552;51.952;7.618;2022-12-07T01:55:47;17.03;;;10.57;;
3083;SDS011;1552;51.952;7.618;2022-12-07T01:58:15;16.23;;;10.10;;
3083;SDS011;1552;51.952;7.618;2022-12-07T02:00:42;14.83;;;10.13;;
3083;SDS011;1552;51.952;7.618;2022-12-07T02:03:09;13.90;;;9.67;;
3083;SDS011;1552;51.952;7.618;2022-12-07T02:05:38;14.60;;;9.83;;
3083;SDS011;1552;51.952;7.618;2022-12-07T02:08:06;15.47;;;9.60;;
3083;SDS011;1552;51.952;7.618;2022-12-07T02:10:33;13.53;;;9.80;;
3083;SDS011;1552;51.952;7.618;2022-12-07T02:13:00;14.93;;;10.33;;
3083;SDS011;1552;51.952;7.618;2022-12-07T02:15:29;14.97;;;10.43;;
3083;SDS011;1552;51.952;7.618;2022-12-07T02:18:00;16.60;;;10.03;;
3083;SDS011;1552;51.952;7.618;2022-12-07T02:20:28;17.97;;;9.90;;
3083;SDS011;1552;51.952;7.618;2022-12-07T02:25:52;16.43;;;10.57;;
3083;SDS011;1552;51.952;7.618;2022-12-07T02:28:22;20.57;;;11.33;;
3083;SDS011;1552;51.952;7.618;2022-12-07T02:30:52;17.27;;;10.87;;
3083;SDS011;1552;51.952;7.618;2022-12-07T02:33:22;14.53;;;10.17;;
3083;SDS011;1552;51.952;7.618;2022-12-07T02:35:51;18.03;;;11.00;;
3083;SDS011;1552;51.952;7.618;2022-12-07T02:38:23;17.00;;;11.80;;
3083;SDS011;1552;51.952;7.618;2022-12-07T02:40:53;17.00;;;10.87;;
3083;SDS011;1552;51.952;7.618;2022-12-07T02:43:23;16.13;;;10.63;;
3083;SDS011;1552;51.952;7.618;2022-12-07T02:45:50;18.47;;;11.50;;
3083;SDS011;1552;51.952;7.618;2022-12-07T02:48:19;15.83;;;10.13;;
3083;SDS011;1552;51.952;7.618;2022-12-07T02:50:47;18.10;;;11.17;;
3083;SDS011;1552;51.952;7.618;2022-12-07T02:53:30;18.97;;;10.47;;
3083;SDS011;1552;51.952;7.618;2022-12-07T02:55:57;14.97;;;10.03;;
3083;SDS011;1552;51.952;7.618;2022-12-07T02:58:27;16.87;;;10.93;;
3083;SDS011;1552;51.952;7.618;2022-12-07T03:00:58;21.47;;;12.00;;
3083;SDS011;1552;51.952;7.618;2022-12-07T03:03:29;16.80;;;10.53;;
3083;SDS011;1552;51.952;7.618;2022-12-07T03:06:06;17.50;;;11.07;;
3083;SDS011;1552;51.952;7.618;2022-12-07T03:08:38;17.87;;;11.10;;
3083;SDS011;1552;51.952;7.618;2022-12-07T03:11:09;18.37;;;9.17;;
3083;SDS011;1552;51.952;7.618;2022-12-07T03:13:38;18.90;;;11.03;;
3083;SDS011;1552;51.952;7.618;2022-12-07T03:16:08;17.90;;;9.83;;
3083;SDS011;1552;51.952;7.618;2022-12-07T03:18:37;16.47;;;10.07;;
3083;SDS011;1552;51.952;7.618;2022-12-07T03:21:05;17.67;;;10.20;;
3083;SDS011;1552;51.952;7.618;2022-12-07T03:23:32;19.67;;;10.70;;
3083;SDS011;1552;51.952;7.618;2022-12-07T03:26:00;17.57;;;10.07;;
3083;SDS011;1552;51.952;7.618;2022-12-07T03:28:28;16.03;;;9.77;;
3083;SDS011;1552;51.952;7.618;2022-12-07T03:30:58;17.17;;;9.90;;
3083;SDS011;1552;51.952;7.618;2022-12-07T03:33:27;14.97;;;9.33;;
3083;SDS011;1552;51.952;7.618;2022-12-07T03:35:58;13.03;;;8.90;;
3083;SDS011;1552;51.952;7.618;2022-12-07T03:38:27;14.63;;;9.43;;
3083;SDS011;1552;51.952;7.618;2022-12-07T03:40:58;18.13;;;9.97;;
3083;SDS011;1552;51.952;7.618;2022-12-07T03:43:27;18.53;;;8.97;;
3083;SDS011;1552;51.952;7.618;2022-12-07T03:45:56;17.17;;;8.70;;
3083;SDS011;1552;51.952;7.618;2022-12-07T03:48:25;13.47;;;8.73;;
3083;SDS011;1552;51.952;7.618;2022-12-07T03:50:55;14.53;;;8.43;;
3083;SDS011;1552;51.952;7.618;2022-12-07T03:53:26;18.87;;;8.90;;
3083;SDS011;1552;51.952;7.618;2022-12-07T03:55:56;15.70;;;8.63;;
3083;SDS011;1552;51.952;7.618;2022-12-07T03:58:23;15.53;;;8.37;;
3083;SDS011;1552;51.952;7.618;2022-12-07T04:00:50;16.43;;;7.87;;
3083;SDS011;1552;51.952;7.618;2022-12-07T04:03:16;12.73;;;7.90;;
3083;SDS011;1552;51.952;7.618;2022-12-07T04:05:43;14.10;;;7.77;;
3083;SDS011;1552;51.952;7.618;2022-12-07T04:08:09;16.73;;;7.50;;
3083;SDS011;1552;51.952;7.618;2022-12-07T04:10:37;16.77;;;8.20;;
3083;SDS011;1552;51.952;7.618;2022-12-07T04:13:03;16.83;;;8.20;;
3083;SDS011;1552;51.952;7.618;2022-12-07T04:15:30;15.67;;;7.20;;
3083;SDS011;1552;51.952;7.618;2022-12-07T04:17:56;15.00;;;7.40;;
3083;SDS011;1552;51.952;7.618;2022-12-07T04:20:22;12.87;;;7.03;;
3083;SDS011;1552;51.952;7.618;2022-12-07T04:22:49;13.33;;;6.97;;
3083;SDS011;1552;51.952;7.618;2022-12-07T04:25:15;19.00;;;7.70;;
3083;SDS011;1552;51.952;7.618;2022-12-07T04:27:43;13.33;;;6.37;;
3083;SDS011;1552;51.952;7.618;2022-12-07T04:30:09;13.77;;;7.23;;
3083;SDS011;1552;51.952;7.618;2022-12-07T04:32:36;14.97;;;7.23;;
3083;SDS011;1552;51.952;7.618;2022-12-07T04:35:03;10.10;;;6.33;;
3083;SDS011;1552;51.952;7.618;2022-12-07T04:37:29;17.07;;;7.43;;
3083;SDS011;1552;51.952;7.618;2022-12-07T04:39:55;11.80;;;7.00;;
3083;SDS011;1552;51.952;7.618;2022-12-07T04:42:22;14.60;;;7.00;;
3083;SDS011;1552;51.952;7.618;2022-12-07T04:44:49;11.57;;;6.77;;
3083;SDS011;1552;51.952;7.618;2022-12-07T04:47:16;14.27;;;6.37;;
3083;SDS011;1552;51.952;7.618;2022-12-07T04:49:42;14.47;;;7.17;;
3083;SDS011;1552;51.952;7.618;2022-12-07T04:52:08;11.80;;;6.93;;
3083;SDS011;1552;51.952;7.618;2022-12-07T04:54:35;12.50;;;6.00;;
3083;SDS011;1552;51.952;7.618;2022-12-07T04:57:01;12.20;;;7.23;;
3083;SDS011;1552;51.952;7.618;2022-12-07T04:59:27;15.67;;;6.40;;
3083;SDS011;1552;51.952;7.618;2022-12-07T05:01:55;9.73;;;5.63;;
3083;SDS011;1552;51.952;7.618;2022-12-07T05:04:21;18.33;;;6.33;;
3083;SDS011;1552;51.952;7.618;2022-12-07T05:06:47;16.40;;;6.93;;
3083;SDS011;1552;51.952;7.618;2022-12-07T05:09:14;14.23;;;7.37;;
3083;SDS011;1552;51.952;7.618;2022-12-07T05:11:40;13.23;;;6.23;;
3083;SDS011;1552;51.952;7.618;2022-12-07T05:14:08;9.60;;;5.80;;
3083;SDS011;1552;51.952;7.618;2022-12-07T05:16:34;11.27;;;6.10;;
3083;SDS011;1552;51.952;7.618;2022-12-07T05:19:02;13.40;;;5.93;;
3083;SDS011;1552;51.952;7.618;2022-12-07T05:21:28;9.87;;;5.33;;
3083;SDS011;1552;51.952;7.618;2022-12-07T05:23:55;12.10;;;5.87;;
3083;SDS011;1552;51.952;7.618;2022-12-07T05:26:21;16.83;;;6.00;;
3083;SDS011;1552;51.952;7.618;2022-12-07T05:28:49;9.50;;;5.17;;
3083;SDS011;1552;51.952;7.618;2022-12-07T05:31:16;13.13;;;5.23;;
3083;SDS011;1552;51.952;7.618;2022-12-07T05:33:49;10.87;;;5.50;;
3083;SDS011;1552;51.952;7.618;2022-12-07T05:36:17;10.97;;;5.20;;
3083;SDS011;1552;51.952;7.618;2022-12-07T05:38:43;12.90;;;5.47;;
3083;SDS011;1552;51.952;7.618;2022-12-07T05:41:11;17.63;;;5.57;;
3083;SDS011;1552;51.952;7.618;2022-12-07T05:43:58;8.77;;;4.97;;
3083;SDS011;1552;51.952;7.618;2022-12-07T05:46:25;11.53;;;4.83;;
3083;SDS011;1552;51.952;7.618;2022-12-07T05:48:51;10.60;;;4.70;;
3083;SDS011;1552;51.952;7.618;2022-12-07T05:51:19;10.57;;;4.97;;
3083;SDS011;1552;51.952;7.618;2022-12-07T05:53:45;8.87;;;4.10;;
3083;SDS011;1552;51.952;7.618;2022-12-07T05:56:11;10.90;;;4.50;;
3083;SDS011;1552;51.952;7.618;2022-12-07T05:58:38;7.27;;;4.50;;
3083;SDS011;1552;51.952;7.618;2022-12-07T06:01:22;7.67;;;3.83;;
3083;SDS011;1552;51.952;7.618;2022-12-07T06:03:48;6.83;;;4.50;;
3083;SDS011;1552;51.952;7.618;2022-12-07T06:06:14;10.07;;;4.40;;
3083;SDS011;1552;51.952;7.618;2022-12-07T06:08:43;11.87;;;4.23;;
3083;SDS011;1552;51.952;7.618;2022-12-07T06:11:09;12.00;;;4.30;;
3083;SDS011;1552;51.952;7.618;2022-12-07T06:13:53;12.70;;;3.77;;
3083;SDS011;1552;51.952;7.618;2022-12-07T06:16:19;7.90;;;3.40;;
3083;SDS011;1552;51.952;7.618;2022-12-07T06:18:46;12.43;;;3.90;;
3083;SDS011;1552;51.952;7.618;2022-12-07T06:21:12;8.67;;;3.57;;
3083;SDS011;1552;51.952;7.618;2022-12-07T06:23:39;13.13;;;4.33;;
3083;SDS011;1552;51.952;7.618;2022-12-07T06:26:07;12.70;;;4.43;;
3083;SDS011;1552;51.952;7.618;2022-12-07T06:28:33;9.23;;;3.60;;
3083;SDS011;1552;51.952;7.618;2022-12-07T06:31:00;10.17;;;3.87;;
3083;SDS011;1552;51.952;7.618;2022-12-07T06:33:26;11.43;;;3.90;;
3083;SDS011;1552;51.952;7.618;2022-12-07T06:35:53;10.03;;;3.77;;
3083;SDS011;1552;51.952;7.618;2022-12-07T06:38:19;8.87;;;3.93;;
3083;SDS011;1552;51.952;7.618;2022-12-07T06:40:46;6.70;;;3.00;;
3083;SDS011;1552;51.952;7.618;2022-12-07T06:43:14;7.53;;;3.40;;
3083;SDS011;1552;51.952;7.618;2022-12-07T06:45:40;6.60;;;3.20;;
3083;SDS011;1552;51.952;7.618;2022-12-07T06:48:07;10.23;;;3.80;;
3083;SDS011;1552;51.952;7.618;2022-12-07T06:50:33;6.93;;;3.43;;
3083;SDS011;1552;51.952;7.618;2022-12-07T06:52:59;13.00;;;3.90;;
3083;SDS011;1552;51.952;7.618;2022-12-07T06:55:26;11.43;;;3.67;;
3083;SDS011;1552;51.952;7.618;2022-12-07T06:57:52;9.27;;;3.30;;
3083;SDS011;1552;51.952;7.618;2022-12-07T07:00:20;13.97;;;3.27;;
3083;SDS011;1552;51.952;7.618;2022-12-07T07:02:46;7.27;;;3.23;;
3083;SDS011;1552;51.952;7.618;2022-12-07T07:05:12;10.33;;;3.30;;
3083;SDS011;1552;51.952;7.618;2022-12-07T07:07:40;8.37;;;3.50;;
3083;SDS011;1552;51.952;7.618;2022-12-07T07:10:07;8.37;;;3.30;;
3083;SDS011;1552;51.952;7.618;2022-12-07T07:12:33;9.23;;;3.23;;
3083;SDS011;1552;51.952;7.618;2022-12-07T07:15:01;8.83;;;2.93;;
3083;SDS011;1552;51.952;7.618;2022-12-07T07:17:29;13.20;;;3.60;;
3083;SDS011;1552;51.952;7.618;2022-12-07T07:19:56;6.70;;;3.00;;
3083;SDS011;1552;51.952;7.618;2022-12-07T07:22:22;8.47;;;3.40;;
3083;SDS011;1552;51.952;7.618;2022-12-07T07:24:48;8.37;;;3.00;;
3083;SDS011;1552;51.952;7.618;2022-12-07T07:27:15;8.17;;;3.40;;
3083;SDS011;1552;51.952;7.618;2022-12-07T07:29:42;8.00;;;3.57;;
3083;SDS011;1552;51.952;7.618;2022-12-07T07:32:08;7.07;;;3.20;;
3083;SDS011;1552;51.952;7.618;2022-12-07T07:34:35;10.57;;;4.23;;
3083;SDS011;1552;51.952;7.618;2022-12-07T07:37:02;8.83;;;4.00;;
3083;SDS011;1552;51.952;7.618;2022-12-07T07:39:28;8.53;;;3.53;;
3083;SDS011;1552;51.952;7.618;2022-12-07T07:41:54;8.37;;;3.80;;
3083;SDS011;1552;51.952;7.618;2022-12-07T07:44:21;13.70;;;4.33;;
3083;SDS011;1552;51.952;7.618;2022-12-07T07:46:47;7.50;;;2.80;;
3083;SDS011;1552;51.952;7.618;2022-12-07T07:49:13;8.03;;;3.77;;
3083;SDS011;1552;51.952;7.618;2022-12-07T07:51:41;7.43;;;3.10;;
3083;SDS011;1552;51.952;7.618;2022-12-07T07:54:07;6.87;;;3.67;;
3083;SDS011;1552;51.952;7.618;2022-12-07T07:56:33;10.47;;;3.53;;
3083;SDS011;1552;51.952;7.618;2022-12-07T07:59:00;7.27;;;3.37;;
3083;SDS011;1552;51.952;7.618;2022-12-07T08:01:26;6.93;;;3.63;;
3083;SDS011;1552;51.952;7.618;2022-12-07T08:03:53;5.93;;;3.03;;
3083;SDS011;1552;51.952;7.618;2022-12-07T08:06:19;6.83;;;3.30;;
3083;SDS011;1552;51.952;7.618;2022-12-07T08:08:47;8.87;;;3.20;;
3083;SDS011;1552;51.952;7.618;2022-12-07T08:11:13;9.47;;;3.93;;
3083;SDS011;1552;51.952;7.618;2022-12-07T08:13:39;10.97;;;4.67;;
3083;SDS011;1552;51.952;7.618;2022-12-07T08:16:06;8.30;;;3.50;;
3083;SDS011;1552;51.952;7.618;2022-12-07T08:18:34;9.37;;;3.50;;
3083;SDS011;1552;51.952;7.618;2022-12-07T08:21:01;9.03;;;3.67;;
3083;SDS011;1552;51.952;7.618;2022-12-07T08:23:27;6.83;;;3.20;;
3083;SDS011;1552;51.952;7.618;2022-12-07T08:25:55;9.00;;;3.23;;
3083;SDS011;1552;51.952;7.618;2022-12-07T08:28:26;6.50;;;3.60;;
3083;SDS011;1552;51.952;7.618;2022-12-07T08:30:57;7.93;;;3.47;;
3083;SDS011;1552;51.952;7.618;2022-12-07T08:33:24;12.93;;;3.60;;
3083;SDS011;1552;51.952;7.618;2022-12-07T08:35:51;11.33;;;3.27;;
3083;SDS011;1552;51.952;7.618;2022-12-07T08:38:17;10.37;;;4.43;;
3083;SDS011;1552;51.952;7.618;2022-12-07T08:40:43;8.47;;;3.27;;
3083;SDS011;1552;51.952;7.618;2022-12-07T08:43:11;9.80;;;3.70;;
3083;SDS011;1552;51.952;7.618;2022-12-07T08:45:37;12.00;;;4.00;;
3083;SDS011;1552;51.952;7.618;2022-12-07T08:48:06;6.40;;;3.10;;
3083;SDS011;1552;51.952;7.618;2022-12-07T08:50:33;7.87;;;3.37;;
3083;SDS011;1552;51.952;7.618;2022-12-07T08:53:00;11.03;;;3.50;;
3083;SDS011;1552;51.952;7.618;2022-12-07T08:55:27;7.23;;;3.20;;
3083;SDS011;1552;51.952;7.618;2022-12-07T08:57:54;9.50;;;3.77;;
3083;SDS011;1552;51.952;7.618;2022-12-07T09:00:22;10.10;;;3.40;;
3083;SDS011;1552;51.952;7.618;2022-12-07T09:02:48;15.20;;;4.00;;
3083;SDS011;1552;51.952;7.618;2022-12-07T09:05:15;17.47;;;3.53;;
3083;SDS011;1552;51.952;7.618;2022-12-07T09:07:41;12.70;;;4.17;;
3083;SDS011;1552;51.952;7.618;2022-12-07T09:10:09;12.03;;;4.43;;
3083;SDS011;1552;51.952;7.618;2022-12-07T09:12:35;7.83;;;3.53;;
3083;SDS011;1552;51.952;7.618;2022-12-07T09:15:01;11.17;;;3.87;;
3083;SDS011;1552;51.952;7.618;2022-12-07T09:17:31;7.13;;;2.90;;
3083;SDS011;1552;51.952;7.618;2022-12-07T09:19:57;10.07;;;4.00;;
3083;SDS011;1552;51.952;7.618;2022-12-07T09:22:27;7.30;;;3.20;;
3083;SDS011;1552;51.952;7.618;2022-12-07T09:24:54;9.10;;;4.10;;
3083;SDS011;1552;51.952;7.618;2022-12-07T09:27:20;9.17;;;3.30;;
3083;SDS011;1552;51.952;7.618;2022-12-07T09:29:46;8.50;;;4.20;;
3083;SDS011;1552;51.952;7.618;2022-12-07T09:32:13;9.87;;;3.13;;
3083;SDS011;1552;51.952;7.618;2022-12-07T09:34:40;10.27;;;3.30;;
3083;SDS011;1552;51.952;7.618;2022-12-07T09:37:07;7.57;;;3.07;;
3083;SDS011;1552;51.952;7.618;2022-12-07T09:39:33;8.10;;;2.63;;
3083;SDS011;1552;51.952;7.618;2022-12-07T09:42:02;7.70;;;2.87;;
3083;SDS011;1552;51.952;7.618;2022-12-07T09:44:29;8.57;;;2.80;;
3083;SDS011;1552;51.952;7.618;2022-12-07T09:46:55;9.37;;;3.03;;
3083;SDS011;1552;51.952;7.618;2022-12-07T09:49:23;9.47;;;2.50;;
3083;SDS011;1552;51.952;7.618;2022-12-07T09:52:00;8.10;;;2.90;;
3083;SDS011;1552;51.952;7.618;2022-12-07T09:54:27;6.57;;;2.37;;
3083;SDS011;1552;51.952;7.618;2022-12-07T09:56:54;8.03;;;2.63;;
3083;SDS011;1552;51.952;7.618;2022-12-07T09:59:21;6.53;;;2.77;;
3083;SDS011;1552;51.952;7.618;2022-12-07T10:01:48;8.10;;;2.50;;
3083;SDS011;1552;51.952;7.618;2022-12-07T10:04:15;6.33;;;2.77;;
3083;SDS011;1552;51.952;7.618;2022-12-07T10:06:44;5.87;;;2.30;;
3083;SDS011;1552;51.952;7.618;2022-12-07T10:09:14;8.03;;;2.37;;
3083;SDS011;1552;51.952;7.618;2022-12-07T10:12:03;7.23;;;2.30;;
3083;SDS011;1552;51.952;7.618;2022-12-07T10:14:31;7.63;;;2.67;;
3083;SDS011;1552;51.952;7.618;2022-12-07T10:16:58;7.67;;;2.40;;
3083;SDS011;1552;51.952;7.618;2022-12-07T10:19:26;5.37;;;2.40;;
3083;SDS011;1552;51.952;7.618;2022-12-07T10:21:59;11.87;;;2.57;;
3083;SDS011;1552;51.952;7.618;2022-12-07T10:24:27;6.87;;;2.50;;
3083;SDS011;1552;51.952;7.618;2022-12-07T10:26:53;6.77;;;2.90;;
3083;SDS011;1552;51.952;7.618;2022-12-07T10:29:20;13.13;;;2.50;;
3083;SDS011;1552;51.952;7.618;2022-12-07T10:31:49;7.93;;;2.57;;
3083;SDS011;1552;51.952;7.618;2022-12-07T10:34:20;7.83;;;2.40;;
3083;SDS011;1552;51.952;7.618;2022-12-07T10:36:47;9.83;;;2.90;;
3083;SDS011;1552;51.952;7.618;2022-12-07T10:39:14;4.03;;;2.53;;
3083;SDS011;1552;51.952;7.618;2022-12-07T10:41:53;8.60;;;2.70;;
3083;SDS011;1552;51.952;7.618;2022-12-07T10:44:21;9.43;;;2.20;;
3083;SDS011;1552;51.952;7.618;2022-12-07T10:46:56;9.27;;;2.53;;
3083;SDS011;1552;51.952;7.618;2022-12-07T10:52:08;13.77;;;3.37;;
3083;SDS011;1552;51.952;7.618;2022-12-07T10:54:38;7.17;;;2.70;;
3083;SDS011;1552;51.952;7.618;2022-12-07T10:57:19;8.27;;;2.40;;
3083;SDS011;1552;51.952;7.618;2022-12-07T10:59:52;6.60;;;2.10;;
3083;SDS011;1552;51.952;7.618;2022-12-07T11:02:29;6.97;;;2.63;;
3083;SDS011;1552;51.952;7.618;2022-12-07T11:05:01;9.43;;;2.27;;
3083;SDS011;1552;51.952;7.618;2022-12-07T11:07:30;8.40;;;2.67;;
3083;SDS011;1552;51.952;7.618;2022-12-07T11:10:01;5.23;;;1.80;;
3083;SDS011;1552;51.952;7.618;2022-12-07T11:12:34;7.53;;;2.43;;
3083;SDS011;1552;51.952;7.618;2022-12-07T11:15:10;6.23;;;2.40;;
3083;SDS011;1552;51.952;7.618;2022-12-07T11:17:42;6.67;;;2.20;;
3083;SDS011;1552;51.952;7.618;2022-12-07T11:20:12;6.07;;;2.17;;
3083;SDS011;1552;51.952;7.618;2022-12-07T11:22:46;8.30;;;2.33;;
3083;SDS011;1552;51.952;7.618;2022-12-07T11:25:17;7.13;;;2.03;;
3083;SDS011;1552;51.952;7.618;2022-12-07T11:27:48;9.40;;;2.43;;
3083;SDS011;1552;51.952;7.618;2022-12-07T11:30:20;10.47;;;2.40;;
3083;SDS011;1552;51.952;7.618;2022-12-07T11:32:59;7.57;;;2.20;;
3083;SDS011;1552;51.952;7.618;2022-12-07T11:35:34;11.40;;;2.73;;
3083;SDS011;1552;51.952;7.618;2022-12-07T11:38:16;5.97;;;1.83;;
3083;SDS011;1552;51.952;7.618;2022-12-07T11:40:43;6.90;;;2.57;;
3083;SDS011;1552;51.952;7.618;2022-12-07T11:43:15;5.97;;;2.23;;
3083;SDS011;1552;51.952;7.618;2022-12-07T11:45:45;8.13;;;2.33;;
3083;SDS011;1552;51.952;7.618;2022-12-07T11:48:14;6.03;;;1.80;;
3083;SDS011;1552;51.952;7.618;2022-12-07T11:50:44;5.03;;;2.00;;
3083;SDS011;1552;51.952;7.618;2022-12-07T11:53:14;6.20;;;2.00;;
3083;SDS011;1552;51.952;7.618;2022-12-07T11:55:43;5.17;;;1.80;;
3083;SDS011;1552;51.952;7.618;2022-12-07T11:58:18;7.30;;;1.80;;
3083;SDS011;1552;51.952;7.618;2022-12-07T12:00:46;5.43;;;1.67;;
3083;SDS011;1552;51.952;7.618;2022-12-07T12:03:15;10.80;;;1.83;;
3083;SDS011;1552;51.952;7.618;2022-12-07T12:05:42;9.73;;;1.97;;
3083;SDS011;1552;51.952;7.618;2022-12-07T12:08:13;7.13;;;2.00;;
3083;SDS011;1552;51.952;7.618;2022-12-07T12:10:44;8.17;;;2.30;;
3083;SDS011;1552;51.952;7.618;2022-12-07T12:13:18;11.57;;;2.40;;
3083;SDS011;1552;51.952;7.618;2022-12-07T12:15:51;9.07;;;1.70;;
3083;SDS011;1552;51.952;7.618;2022-12-07T12:18:33;4.87;;;1.47;;
3083;SDS011;1552;51.952;7.618;2022-12-07T12:21:02;6.83;;;1.60;;
3083;SDS011;1552;51.952;7.618;2022-12-07T12:23:34;4.00;;;1.67;;
3083;SDS011;1552;51.952;7.618;2022-12-07T12:26:01;7.97;;;2.00;;
3083;SDS011;1552;51.952;7.618;2022-12-07T12:28:31;7.33;;;1.83;;
3083;SDS011;1552;51.952;7.618;2022-12-07T12:33:47;8.17;;;2.17;;
3083;SDS011;1552;51.952;7.618;2022-12-07T12:36:22;5.30;;;1.80;;
3083;SDS011;1552;51.952;7.618;2022-12-07T12:38:50;8.97;;;1.87;;
3083;SDS011;1552;51.952;7.618;2022-12-07T12:43:59;7.70;;;2.00;;
3083;SDS011;1552;51.952;7.618;2022-12-07T12:46:38;4.57;;;2.00;;
3083;SDS011;1552;51.952;7.618;2022-12-07T12:49:24;8.03;;;1.93;;
3083;SDS011;1552;51.952;7.618;2022-12-07T12:51:57;9.37;;;2.10;;
3083;SDS011;1552;51.952;7.618;2022-12-07T12:54:24;5.53;;;2.03;;
3083;SDS011;1552;51.952;7.618;2022-12-07T12:56:52;8.00;;;2.07;;
3083;SDS011;1552;51.952;7.618;2022-12-07T12:59:24;8.57;;;2.13;;
3083;SDS011;1552;51.952;7.618;2022-12-07T13:01:51;8.87;;;2.60;;
3083;SDS011;1552;51.952;7.618;2022-12-07T13:04:38;6.30;;;1.83;;
3083;SDS011;1552;51.952;7.618;2022-12-07T13:07:09;11.17;;;2.37;;
3083;SDS011;1552;51.952;7.618;2022-12-07T13:09:36;11.23;;;3.47;;
3083;SDS011;1552;51.952;7.618;2022-12-07T13:12:11;8.83;;;2.33;;
3083;SDS011;1552;51.952;7.618;2022-12-07T13:14:53;7.37;;;2.73;;
3083;SDS011;1552;51.952;7.618;2022-12-07T13:20:05;6.00;;;2.20;;
3083;SDS011;1552;51.952;7.618;2022-12-07T13:22:49;6.07;;;1.73;;
3083;SDS011;1552;51.952;7.618;2022-12-07T13:25:19;5.57;;;1.80;;
3083;SDS011;1552;51.952;7.618;2022-12-07T13:27:48;7.50;;;2.17;;
3083;SDS011;1552;51.952;7.618;2022-12-07T13:30:17;5.30;;;2.30;;
3083;SDS011;1552;51.952;7.618;2022-12-07T13:32:49;6.93;;;2.10;;
3083;SDS011;1552;51.952;7.618;2022-12-07T13:35:30;7.80;;;2.00;;
3083;SDS011;1552;51.952;7.618;2022-12-07T13:37:57;5.23;;;1.70;;
3083;SDS011;1552;51.952;7.618;2022-12-07T13:40:23;6.70;;;1.77;;
3083;SDS011;1552;51.952;7.618;2022-12-07T13:42:56;5.93;;;2.00;;
3083;SDS011;1552;51.952;7.618;2022-12-07T13:45:27;3.97;;;1.67;;
3083;SDS011;1552;51.952;7.618;2022-12-07T13:48:14;6.83;;;2.10;;
3083;SDS011;1552;51.952;7.618;2022-12-07T13:50:41;5.77;;;1.67;;
3083;SDS011;1552;51.952;7.618;2022-12-07T13:53:11;7.17;;;1.90;;
3083;SDS011;1552;51.952;7.618;2022-12-07T13:55:38;5.47;;;1.60;;
3083;SDS011;1552;51.952;7.618;2022-12-07T13:58:10;6.60;;;2.27;;
3083;SDS011;1552;51.952;7.618;2022-12-07T14:00:37;15.17;;;3.40;;
3083;SDS011;1552;51.952;7.618;2022-12-07T14:03:26;7.53;;;1.93;;
3083;SDS011;1552;51.952;7.618;2022-12-07T14:06:03;5.90;;;1.83;;
3083;SDS011;1552;51.952;7.618;2022-12-07T14:08:30;10.33;;;2.07;;
3083;SDS011;1552;51.952;7.618;2022-12-07T14:10:57;8.37;;;2.00;;
3083;SDS011;1552;51.952;7.618;2022-12-07T14:13:26;5.57;;;1.43;;
3083;SDS011;1552;51.952;7.618;2022-12-07T14:15:55;9.37;;;2.80;;
3083;SDS011;1552;51.952;7.618;2022-12-07T14:18:25;7.10;;;2.13;;
3083;SDS011;1552;51.952;7.618;2022-12-07T14:21:02;8.73;;;2.60;;
3083;SDS011;1552;51.952;7.618;2022-12-07T14:23:28;7.47;;;2.03;;
3083;SDS011;1552;51.952;7.618;2022-12-07T14:26:04;4.93;;;2.10;;
3083;SDS011;1552;51.952;7.618;2022-12-07T14:28:32;3.40;;;1.70;;
3083;SDS011;1552;51.952;7.618;2022-12-07T14:31:00;6.03;;;1.70;;
3083;SDS011;1552;51.952;7.618;2022-12-07T14:33:27;9.20;;;1.93;;
3083;SDS011;1552;51.952;7.618;2022-12-07T14:35:54;4.23;;;1.40;;
3083;SDS011;1552;51.952;7.618;2022-12-07T14:38:22;4.60;;;1.63;;
3083;SDS011;1552;51.952;7.618;2022-12-07T14:40:50;3.83;;;1.67;;
3083;SDS011;1552;51.952;7.618;2022-12-07T14:43:17;5.47;;;1.40;;
3083;SDS011;1552;51.952;7.618;2022-12-07T14:45:44;5.43;;;1.53;;
3083;SDS011;1552;51.952;7.618;2022-12-07T14:48:12;5.30;;;1.73;;
3083;SDS011;1552;51.952;7.618;2022-12-07T14:50:40;9.00;;;1.53;;
3083;SDS011;1552;51.952;7.618;2022-12-07T14:53:09;3.77;;;1.40;;
3083;SDS011;1552;51.952;7.618;2022-12-07T14:55:36;7.20;;;1.50;;
3083;SDS011;1552;51.952;7.618;2022-12-07T14:58:03;5.07;;;1.30;;
3083;SDS011;1552;51.952;7.618;2022-12-07T15:00:29;4.17;;;1.53;;
3083;SDS011;1552;51.952;7.618;2022-12-07T15:02:56;4.67;;;1.37;;
3083;SDS011;1552;51.952;7.618;2022-12-07T15:05:24;5.60;;;1.50;;
3083;SDS011;1552;51.952;7.618;2022-12-07T15:07:51;3.77;;;1.37;;
3083;SDS011;1552;51.952;7.618;2022-12-07T15:10:23;16.10;;;2.13;;
3083;SDS011;1552;51.952;7.618;2022-12-07T15:12:54;4.97;;;1.47;;
3083;SDS011;1552;51.952;7.618;2022-12-07T15:15:40;4.83;;;1.47;;
3083;SDS011;1552;51.952;7.618;2022-12-07T15:18:07;3.83;;;1.43;;
3083;SDS011;1552;51.952;7.618;2022-12-07T15:20:34;7.43;;;1.67;;
3083;SDS011;1552;51.952;7.618;2022-12-07T15:23:01;8.80;;;2.17;;
3083;SDS011;1552;51.952;7.618;2022-12-07T15:25:27;4.03;;;1.73;;
3083;SDS011;1552;51.952;7.618;2022-12-07T15:27:53;7.40;;;1.80;;